createdAt,value
2019-04-03T00:01:07.935Z,26.77
2019-04-03T00:03:36.911Z,29.90
2019-04-03T00:06:06.186Z,35.17
2019-04-03T00:08:36.649Z,37.37
2019-04-03T00:11:08.659Z,29.80
2019-04-03T00:13:36.036Z,31.67
2019-04-03T00:16:05.082Z,32.97
2019-04-03T00:18:33.913Z,27.63
2019-04-03T00:21:02.621Z,30.30
2019-04-03T00:23:31.413Z,32.23
2019-04-03T00:26:00.161Z,34.03
2019-04-03T00:28:29.113Z,33.77
2019-04-03T00:30:58.055Z,31.67
2019-04-03T00:33:26.774Z,32.10
2019-04-03T00:35:55.560Z,31.53
2019-04-03T00:38:24.743Z,34.47
2019-04-03T00:40:54.254Z,36.33
2019-04-03T00:43:24.748Z,32.93
2019-04-03T00:45:55.114Z,30.40
2019-04-03T00:48:25.700Z,30.87
2019-04-03T00:50:57.313Z,36.83
2019-04-03T00:53:25.916Z,35.07
2019-04-03T00:55:56.514Z,35.77
2019-04-03T00:58:39.900Z,31.60
2019-04-03T01:01:10.934Z,35.43
2019-04-03T01:03:40.537Z,39.33
2019-04-03T01:06:09.736Z,36.80
2019-04-03T01:08:38.618Z,38.50
2019-04-03T01:11:07.711Z,34.70
2019-04-03T01:13:36.688Z,35.63
2019-04-03T01:16:06.007Z,35.23
2019-04-03T01:18:35.463Z,34.93
2019-04-03T01:21:06.888Z,35.37
2019-04-03T01:23:37.420Z,32.57
2019-04-03T01:26:06.055Z,32.70
2019-04-03T01:28:34.793Z,35.63
2019-04-03T01:31:03.865Z,34.93
2019-04-03T01:33:32.863Z,34.03
2019-04-03T01:36:01.859Z,34.63
2019-04-03T01:38:30.584Z,30.60
2019-04-03T01:40:59.608Z,34.70
2019-04-03T01:43:28.375Z,33.77
2019-04-03T01:45:57.334Z,35.53
2019-04-03T01:48:26.877Z,39.10
2019-04-03T01:50:59.226Z,36.23
2019-04-03T01:53:26.943Z,35.50
2019-04-03T01:55:55.918Z,35.30
2019-04-03T01:58:24.884Z,34.27
2019-04-03T02:00:54.250Z,35.73
2019-04-03T02:03:22.973Z,33.07
2019-04-03T02:05:52.171Z,35.93
2019-04-03T02:08:21.435Z,34.53
2019-04-03T02:10:50.363Z,36.40
2019-04-03T02:13:21.157Z,39.07
2019-04-03T02:15:52.139Z,37.57
2019-04-03T02:18:20.309Z,36.73
2019-04-03T02:20:49.371Z,34.43
2019-04-03T02:23:18.384Z,39.20
2019-04-03T02:25:47.098Z,36.00
2019-04-03T02:28:16.042Z,36.37
2019-04-03T02:30:46.704Z,34.27
2019-04-03T02:33:16.424Z,33.50
2019-04-03T02:35:45.921Z,36.73
2019-04-03T02:38:14.921Z,39.87
2019-04-03T02:40:44.010Z,39.80
2019-04-03T02:43:14.117Z,41.10
2019-04-03T02:45:43.532Z,35.33
2019-04-03T02:48:12.826Z,36.40
2019-04-03T02:50:42.218Z,36.70
2019-04-03T02:53:11.105Z,36.63
2019-04-03T02:55:40.983Z,35.77
2019-04-03T02:58:10.115Z,35.63
2019-04-03T03:00:39.112Z,33.53
2019-04-03T03:03:07.899Z,37.30
2019-04-03T03:05:36.921Z,41.80
2019-04-03T03:08:08.257Z,33.53
2019-04-03T03:10:37.812Z,37.33
2019-04-03T03:13:07.169Z,36.93
2019-04-03T03:15:36.814Z,36.47
2019-04-03T03:18:05.997Z,34.53
2019-04-03T03:20:39.805Z,37.57
2019-04-03T03:23:07.366Z,36.90
2019-04-03T03:25:36.177Z,38.43
2019-04-03T03:28:05.342Z,39.17
2019-04-03T03:30:43.280Z,36.47
2019-04-03T03:33:30.064Z,36.63
2019-04-03T03:35:41.421Z,39.27
2019-04-03T03:38:08.419Z,37.80
2019-04-03T03:40:38.264Z,39.10
2019-04-03T03:43:08.601Z,41.03
2019-04-03T03:45:38.265Z,35.63
2019-04-03T03:48:10.438Z,42.47
2019-04-03T03:50:39.111Z,39.33
2019-04-03T03:53:11.582Z,43.87
2019-04-03T03:55:40.086Z,37.93
2019-04-03T03:58:12.532Z,40.93
2019-04-03T04:00:41.971Z,41.30
2019-04-03T04:03:11.710Z,42.23
2019-04-03T04:05:41.128Z,36.03
2019-04-03T04:08:11.310Z,37.23
2019-04-03T04:10:41.383Z,36.87
2019-04-03T04:13:13.361Z,40.43
2019-04-03T04:15:41.464Z,38.97
2019-04-03T04:18:13.808Z,38.60
2019-04-03T04:20:42.180Z,40.57
2019-04-03T04:23:11.712Z,37.10
2019-04-03T04:25:43.465Z,38.20
2019-04-03T04:28:11.750Z,39.07
2019-04-03T04:30:42.536Z,38.80
2019-04-03T04:33:11.753Z,42.73
2019-04-03T04:35:41.313Z,40.93
2019-04-03T04:38:10.866Z,41.10
2019-04-03T04:40:39.855Z,40.93
2019-04-03T04:43:08.871Z,40.47
2019-04-03T04:45:37.722Z,39.40
2019-04-03T04:48:06.721Z,37.43
2019-04-03T04:50:35.398Z,40.13
2019-04-03T04:53:04.694Z,36.47
2019-04-03T04:55:34.999Z,41.23
2019-04-03T04:58:04.922Z,37.70
2019-04-03T05:00:34.334Z,38.40
2019-04-03T05:03:03.049Z,36.40
2019-04-03T05:05:31.786Z,38.13
2019-04-03T05:08:01.959Z,38.13
2019-04-03T05:10:31.130Z,39.83
2019-04-03T05:13:00.082Z,35.97
2019-04-03T05:15:29.010Z,46.57
2019-04-03T05:17:58.324Z,39.63
2019-04-03T05:20:27.305Z,40.73
2019-04-03T05:22:56.055Z,43.43
2019-04-03T05:25:24.978Z,42.03
2019-04-03T05:27:53.932Z,41.93
2019-04-03T05:30:36.663Z,42.43
2019-04-03T05:33:05.231Z,40.57
2019-04-03T05:35:34.042Z,42.10
2019-04-03T05:38:03.297Z,42.43
2019-04-03T05:40:32.248Z,39.17
2019-04-03T05:43:00.989Z,43.80
2019-04-03T05:45:30.231Z,44.63
2019-04-03T05:47:59.224Z,37.00
2019-04-03T05:50:28.274Z,43.20
2019-04-03T05:52:57.422Z,40.10
2019-04-03T05:55:26.129Z,43.43
2019-04-03T05:57:54.952Z,42.23
2019-04-03T06:00:24.202Z,37.97
2019-04-03T06:02:54.083Z,42.30
2019-04-03T06:05:23.875Z,40.40
2019-04-03T06:07:52.820Z,40.03
2019-04-03T06:10:21.589Z,45.97
2019-04-03T06:12:50.563Z,39.27
2019-04-03T06:15:21.816Z,37.47
2019-04-03T06:17:51.168Z,40.33
2019-04-03T06:20:20.020Z,37.90
2019-04-03T06:22:49.954Z,40.87
2019-04-03T06:25:21.956Z,38.37
2019-04-03T06:27:50.901Z,41.77
2019-04-03T06:30:20.097Z,41.37
2019-04-03T06:32:48.872Z,40.77
2019-04-03T06:35:17.650Z,45.53
2019-04-03T06:37:46.347Z,39.77
2019-04-03T06:40:15.445Z,39.10
2019-04-03T06:42:44.915Z,36.87
2019-04-03T06:45:16.010Z,36.20
2019-04-03T06:47:45.124Z,40.27
2019-04-03T06:50:16.918Z,37.03
2019-04-03T06:52:44.680Z,35.00
2019-04-03T06:55:13.759Z,37.67
2019-04-03T06:57:42.514Z,38.87
2019-04-03T07:00:11.883Z,41.47
2019-04-03T07:02:40.913Z,32.93
2019-04-03T07:05:10.993Z,38.30
2019-04-03T07:07:39.903Z,41.03
2019-04-03T07:10:09.740Z,34.80
2019-04-03T07:12:38.712Z,36.00
2019-04-03T07:15:07.825Z,33.27
2019-04-03T07:17:37.106Z,40.70
2019-04-03T07:20:13.703Z,37.80
2019-04-03T07:22:36.870Z,35.50
2019-04-03T07:25:06.578Z,40.90
2019-04-03T07:27:37.157Z,33.10
2019-04-03T07:30:07.472Z,35.57
2019-04-03T07:32:36.459Z,37.20
2019-04-03T07:35:09.370Z,32.90
2019-04-03T07:37:36.527Z,33.13
2019-04-03T07:40:06.956Z,34.23
2019-04-03T07:42:36.118Z,33.90
2019-04-03T07:45:06.071Z,33.27
2019-04-03T07:47:35.853Z,37.27
2019-04-03T07:50:06.695Z,35.53
2019-04-03T07:52:35.954Z,35.03
2019-04-03T07:55:06.034Z,29.67
2019-04-03T07:57:35.180Z,35.73
2019-04-03T08:00:07.064Z,36.23
2019-04-03T08:02:34.976Z,35.03
2019-04-03T08:05:05.059Z,34.50
2019-04-03T08:07:34.076Z,30.43
2019-04-03T08:10:02.795Z,32.87
2019-04-03T08:12:34.547Z,29.83
2019-04-03T08:15:02.432Z,32.70
2019-04-03T08:17:31.409Z,31.57
2019-04-03T08:20:00.333Z,31.43
2019-04-03T08:22:29.471Z,33.13
2019-04-03T08:24:59.941Z,35.83
2019-04-03T08:27:28.991Z,33.67
2019-04-03T08:29:57.982Z,34.50
2019-04-03T08:32:26.698Z,33.47
2019-04-03T08:34:55.544Z,35.97
2019-04-03T08:39:59.971Z,31.37
2019-04-03T08:42:32.178Z,39.20
2019-04-03T08:45:00.841Z,33.83
2019-04-03T08:47:29.857Z,31.80
2019-04-03T08:50:01.380Z,30.83
2019-04-03T08:52:29.574Z,28.53
2019-04-03T08:54:58.298Z,32.20
2019-04-03T08:57:27.249Z,34.37
2019-04-03T08:59:55.949Z,31.33
2019-04-03T09:02:25.277Z,33.53
2019-04-03T09:04:54.385Z,30.90
2019-04-03T09:07:24.932Z,30.17
2019-04-03T09:09:54.166Z,31.77
2019-04-03T09:12:22.869Z,32.03
2019-04-03T09:14:52.043Z,30.13
2019-04-03T09:17:21.168Z,28.67
2019-04-03T09:19:50.112Z,30.33
2019-04-03T09:22:21.612Z,28.27
2019-04-03T09:24:50.253Z,29.53
2019-04-03T09:27:19.767Z,30.47
2019-04-03T09:29:48.563Z,23.80
2019-04-03T09:32:17.589Z,26.67
2019-04-03T09:34:46.816Z,25.70
2019-04-03T09:37:17.610Z,26.37
2019-04-03T09:39:46.528Z,25.90
2019-04-03T09:42:15.528Z,26.00
2019-04-03T09:44:44.290Z,26.57
2019-04-03T09:47:13.000Z,28.70
2019-04-03T09:49:43.853Z,26.53
2019-04-03T09:52:12.837Z,27.20
2019-04-03T09:54:42.292Z,26.87
2019-04-03T09:57:11.094Z,24.60
2019-04-03T09:59:40.038Z,27.80
2019-04-03T10:02:09.275Z,28.30
2019-04-03T10:04:38.265Z,29.83
2019-04-03T10:07:07.231Z,27.37
2019-04-03T10:09:38.479Z,28.17
2019-04-03T10:12:06.903Z,27.63
2019-04-03T10:14:35.923Z,26.37
2019-04-03T10:17:06.169Z,27.47
2019-04-03T10:19:35.811Z,29.53
2019-04-03T10:22:05.073Z,30.33
2019-04-03T10:24:33.813Z,31.20
2019-04-03T10:27:02.729Z,35.67
2019-04-03T10:29:31.450Z,32.00
2019-04-03T10:32:00.544Z,36.23
2019-04-03T10:34:29.297Z,34.73
2019-04-03T10:36:58.103Z,36.63
2019-04-03T10:39:27.130Z,37.33
2019-04-03T10:41:56.155Z,34.37
2019-04-03T10:44:25.256Z,36.30
2019-04-03T10:46:54.427Z,36.60
2019-04-03T10:49:23.133Z,38.10
2019-04-03T10:51:52.427Z,40.87
2019-04-03T10:54:21.916Z,41.83
2019-04-03T10:56:51.665Z,41.33
2019-04-03T10:59:20.709Z,35.97
2019-04-03T11:01:50.076Z,39.53
2019-04-03T11:04:19.033Z,39.03
2019-04-03T11:06:48.189Z,39.10
2019-04-03T11:09:16.902Z,39.03
2019-04-03T11:11:45.633Z,38.27
2019-04-03T11:14:14.395Z,44.43
2019-04-03T11:16:45.984Z,40.67
2019-04-03T11:19:13.802Z,37.03
2019-04-03T11:21:44.075Z,38.13
2019-04-03T11:24:14.605Z,41.27
2019-04-03T11:26:44.066Z,34.07
2019-04-03T11:29:13.084Z,36.63
2019-04-03T11:31:43.254Z,36.90
2019-04-03T11:34:12.566Z,40.23
2019-04-03T11:36:41.794Z,31.33
2019-04-03T11:39:15.056Z,32.87
2019-04-03T11:41:41.651Z,34.90
2019-04-03T11:44:10.904Z,34.37
2019-04-03T11:46:39.809Z,34.20
2019-04-03T11:49:09.164Z,32.43
2019-04-03T11:51:38.509Z,31.83
2019-04-03T11:54:08.631Z,30.87
2019-04-03T11:56:38.038Z,32.03
2019-04-03T11:59:07.441Z,28.83
2019-04-03T12:01:36.409Z,28.20
2019-04-03T12:04:05.463Z,30.17
2019-04-03T12:06:34.807Z,30.63
2019-04-03T12:09:05.581Z,28.90
2019-04-03T12:11:37.624Z,29.33
2019-04-03T12:14:04.950Z,28.57
2019-04-03T12:16:33.890Z,27.37
2019-04-03T12:19:04.442Z,25.77
2019-04-03T12:21:33.382Z,25.30
2019-04-03T12:24:02.310Z,25.17
2019-04-03T12:26:31.293Z,26.70
2019-04-03T12:29:00.250Z,30.90
2019-04-03T12:31:30.776Z,29.83
2019-04-03T12:34:04.428Z,31.33
2019-04-03T12:36:30.276Z,29.00
2019-04-03T12:38:59.219Z,36.77
2019-04-03T12:41:28.106Z,32.30
2019-04-03T12:43:57.120Z,34.90
2019-04-03T12:46:40.881Z,30.03
2019-04-03T12:49:08.896Z,32.47
2019-04-03T12:51:37.992Z,35.20
2019-04-03T12:54:06.778Z,31.83
2019-04-03T12:56:36.020Z,32.83
2019-04-03T12:59:07.411Z,30.27
2019-04-03T13:01:35.598Z,32.23
2019-04-03T13:04:04.815Z,35.13
2019-04-03T13:06:33.803Z,31.63
2019-04-03T13:09:02.899Z,29.80
2019-04-03T13:11:33.447Z,25.37
2019-04-03T13:14:02.623Z,22.83
2019-04-03T13:16:31.707Z,23.47
2019-04-03T13:19:00.664Z,23.70
2019-04-03T13:21:29.705Z,20.20
2019-04-03T13:23:58.764Z,19.97
2019-04-03T13:26:27.685Z,16.03
2019-04-03T13:28:56.924Z,15.53
2019-04-03T13:31:26.249Z,15.33
2019-04-03T13:33:58.291Z,10.20
2019-04-03T13:36:27.687Z,10.70
2019-04-03T13:39:00.302Z,12.93
2019-04-03T13:41:27.365Z,13.00
2019-04-03T13:43:56.144Z,10.83
2019-04-03T13:46:25.660Z,11.83
2019-04-03T13:48:54.911Z,9.87
2019-04-03T13:51:26.689Z,8.50
2019-04-03T13:53:55.191Z,8.27
2019-04-03T13:56:24.649Z,12.67
2019-04-03T13:58:54.702Z,11.10
2019-04-03T14:01:23.888Z,9.87
2019-04-03T14:03:54.212Z,10.87
2019-04-03T14:06:22.988Z,9.90
2019-04-03T15:16:48.741Z,10.83
2019-04-03T15:19:17.951Z,30.10
2019-04-03T15:21:46.986Z,33.37
2019-04-03T15:24:16.443Z,30.40
2019-04-03T15:26:45.541Z,29.53
2019-04-03T15:39:59.144Z,38.43
2019-04-03T15:42:28.078Z,33.53
2019-04-03T15:45:05.675Z,32.03
2019-04-03T15:47:38.742Z,28.57
2019-04-03T15:50:06.656Z,31.70
2019-04-03T15:52:35.999Z,29.70
2019-04-03T18:05:06.354Z,28.10
2019-04-03T18:07:37.471Z,23.77
2019-04-03T18:10:17.237Z,25.43
2019-04-03T18:13:25.769Z,22.30
2019-04-03T18:16:08.714Z,22.20
2019-04-03T18:18:27.524Z,21.77
2019-04-03T18:20:56.579Z,21.10
2019-04-03T18:23:25.646Z,24.77
2019-04-03T18:25:54.598Z,22.73
2019-04-03T18:28:23.524Z,22.20
2019-04-03T18:30:52.602Z,22.70
2019-04-03T18:33:23.345Z,24.83
2019-04-03T18:35:52.559Z,22.97
2019-04-03T18:38:21.557Z,25.10
2019-04-03T18:40:51.118Z,25.77
2019-04-03T18:43:21.898Z,23.33
2019-04-03T18:45:50.831Z,24.33
2019-04-03T18:48:19.783Z,25.53
2019-04-03T18:50:48.741Z,23.93
2019-04-03T18:53:17.764Z,27.87
2019-04-03T18:55:46.854Z,26.13
2019-04-03T18:58:15.796Z,28.70
2019-04-03T19:00:44.505Z,26.40
2019-04-03T19:03:13.487Z,26.53
2019-04-03T19:05:44.025Z,28.23
2019-04-03T19:08:13.699Z,24.93
2019-04-03T19:10:43.913Z,31.07
2019-04-03T19:13:14.921Z,28.37
2019-04-03T19:15:48.252Z,27.40
2019-04-03T19:18:19.781Z,27.87
2019-04-03T19:20:48.417Z,33.20
2019-04-03T19:23:17.371Z,35.40
2019-04-03T19:25:46.816Z,35.30
2019-04-03T19:28:15.731Z,39.23
2019-04-03T19:30:44.898Z,35.40
2019-04-03T19:33:14.042Z,31.30
2019-04-03T19:35:43.352Z,36.10
2019-04-03T19:38:13.463Z,36.13
2019-04-03T19:40:42.470Z,39.10
2019-04-03T19:43:11.179Z,41.43
2019-04-03T19:46:26.486Z,44.43
2019-04-03T19:49:08.497Z,38.13
2019-04-03T19:51:38.038Z,44.37
2019-04-03T19:54:26.873Z,41.50
2019-04-03T19:56:56.434Z,44.20
2019-04-03T19:59:26.019Z,44.50
2019-04-03T20:01:55.039Z,39.83
2019-04-03T20:04:24.075Z,43.63
2019-04-03T20:06:58.524Z,43.80
2019-04-03T20:09:27.964Z,44.47
2019-04-03T20:12:01.373Z,43.27
2019-04-03T20:14:38.216Z,46.03
2019-04-03T20:17:21.068Z,41.33
2019-04-03T20:19:57.870Z,39.03
2019-04-03T20:22:27.543Z,42.63
2019-04-03T20:25:00.232Z,42.93
2019-04-03T20:27:27.110Z,43.80
2019-04-03T20:29:56.099Z,44.50
2019-04-03T20:32:25.217Z,44.43
2019-04-03T20:34:54.139Z,40.13
2019-04-03T20:37:25.905Z,42.37
2019-04-03T20:39:53.970Z,40.43
2019-04-03T20:42:22.932Z,44.60
2019-04-03T20:45:05.096Z,47.13
2019-04-03T20:47:34.089Z,47.17
2019-04-03T20:50:06.617Z,50.27
2019-04-03T20:52:33.904Z,51.70
2019-04-03T20:55:02.866Z,48.83
2019-04-03T20:57:33.196Z,50.17
2019-04-03T21:00:03.378Z,46.80
2019-04-03T21:02:32.511Z,49.47
2019-04-03T21:08:31.465Z,51.53
2019-04-03T21:11:03.150Z,57.63
2019-04-03T21:13:35.170Z,55.30
2019-04-03T21:16:18.054Z,57.30
2019-04-03T21:19:21.443Z,56.13
2019-04-03T21:22:01.746Z,54.37
2019-04-03T21:24:48.018Z,53.53
2019-04-03T21:27:39.644Z,58.70
2019-04-03T21:30:24.783Z,58.70
2019-04-03T21:33:01.560Z,53.97
2019-04-03T21:35:31.455Z,58.77
2019-04-03T21:38:00.482Z,57.20
2019-04-03T21:40:29.197Z,59.57
2019-04-03T21:42:58.503Z,56.07
2019-04-03T21:45:27.214Z,50.57
2019-04-03T21:47:56.280Z,60.10
2019-04-03T21:50:25.302Z,54.00
2019-04-03T21:52:54.394Z,58.73
2019-04-03T21:55:23.200Z,57.10
2019-04-03T21:57:51.914Z,58.33
2019-04-03T22:00:48.633Z,57.93
2019-04-03T22:03:19.399Z,55.70
2019-04-03T22:05:48.572Z,58.07
2019-04-03T22:08:17.620Z,56.80
2019-04-03T22:10:46.535Z,52.77
2019-04-03T22:13:15.487Z,62.27
2019-04-03T22:15:45.578Z,61.27
2019-04-03T22:18:15.010Z,56.83
2019-04-03T22:20:43.964Z,57.03
2019-04-03T22:23:12.946Z,55.47
2019-04-03T22:25:41.929Z,56.90
2019-04-03T22:28:16.669Z,56.73
2019-04-03T22:30:55.546Z,59.70
2019-04-03T22:33:25.916Z,57.57
2019-04-03T22:36:03.304Z,61.00
2019-04-03T22:38:43.276Z,59.63
2019-04-03T22:41:22.709Z,60.13
2019-04-03T22:43:52.059Z,59.43
2019-04-03T22:46:22.105Z,56.50
2019-04-03T22:48:51.565Z,61.83
2019-04-03T22:51:20.713Z,59.93
2019-04-03T22:53:49.425Z,56.53
2019-04-03T22:56:18.201Z,59.70
2019-04-03T22:58:47.104Z,59.83
2019-04-03T23:01:16.121Z,62.83
2019-04-03T23:03:45.314Z,58.00
2019-04-03T23:06:14.322Z,64.60
2019-04-03T23:08:43.311Z,56.03
2019-04-03T23:11:12.296Z,62.07
2019-04-03T23:13:41.303Z,56.03
2019-04-03T23:16:11.564Z,63.23
2019-04-03T23:18:40.442Z,65.90
2019-04-03T23:21:09.458Z,64.23
2019-04-03T23:23:39.053Z,56.67
2019-04-03T23:26:08.034Z,62.57
2019-04-03T23:28:36.979Z,65.93
2019-04-03T23:31:06.082Z,66.03
2019-04-03T23:33:35.042Z,66.33
2019-04-03T23:36:03.748Z,65.33
2019-04-03T23:38:32.773Z,64.00
2019-04-03T23:41:01.792Z,68.00
2019-04-03T23:43:30.845Z,69.37
2019-04-03T23:45:59.578Z,70.33
2019-04-03T23:48:28.294Z,73.77
2019-04-03T23:50:57.248Z,66.90
2019-04-03T23:53:26.184Z,74.17
2019-04-03T23:55:55.440Z,71.97
2019-04-03T23:58:24.162Z,76.17
